Flight Track Log - Related Links

Times and Time Zones

All times are in EDT time to prevent confusion due to time zone crossing. See the N675MC flight status page for this flight to view local times or setup timezone preferences in your user account.

Time Position Orientation Groundspeed Altitude Reporting Facility
EDT Latitude Longitude Course Direction KTS MPH feet Rate Location/Type
Sun 06:45:45 PM 34.7156 -92.2469 64° Northeast 145 167 1,100  Level Memphis Center
Sun 06:46:15 PM 34.6906 -92.2414 170° South 182 209 1,600 1,385 Climbing Memphis Center
Sun 06:47:16 PM 34.6728 -92.1856 111° Southeast 229 264 3,200 1,686 Climbing Memphis Center
Sun 06:48:00 PM 34.6890 -91.8515 79° East  Level Estimated
Sun 06:48:16 PM 34.6969 -92.1050 70° East 266 306 5,000  Level Memphis Center
Sun 06:48:37 PM 34.6994 -92.0722 85° East 266 306 5,900 2,444 Climbing Memphis Center
Sun 06:49:00 PM 34.6752 -91.7271 90° East  Level Estimated
Sun 06:49:37 PM 34.7028 -91.9764 88° East 284 327 8,300  Level Memphis Center
Sun 06:50:00 PM 34.6614 -91.6028 78° East  Level Estimated
Sun 06:50:37 PM 34.7186 -91.8756 79° East 289 333 11,000  Level Memphis Center
Sun 06:51:00 PM 34.7061 -91.4898 64° Northeast  Level FlightAware Approximate
Sun 06:51:37 PM 34.7386 -91.7672 77° East 299 344 12,300  Level Memphis Center
Sun 06:52:37 PM 34.7525 -91.6539 81° East 330 380 15,200 2,350 Climbing Memphis Center
Sun 06:53:37 PM 34.7703 -91.5353 80° East 348 400 17,000 2,000 Climbing Memphis Center
Sun 06:54:37 PM 34.7903 -91.4117 79° East 359 413 19,200 1,950 Climbing Memphis Center
Sun 06:55:37 PM 34.8036 -91.2878 82° East 359 413 20,900 1,750 Climbing Memphis Center
Sun 06:56:37 PM 34.8233 -91.1617 79° East 379 436 22,700 1,450 Climbing Memphis Center
Sun 06:57:37 PM 34.8450 -91.0278 79° East 385 443 23,800 1,300 Climbing Memphis Center
Sun 06:58:37 PM 34.8642 -90.9089 79° East 391 450 25,300 1,150 Climbing Memphis Center
Sun 06:59:37 PM 34.8711 -90.7672 87° East 402 463 26,100 850 Climbing Memphis Center
Sun 07:00:37 PM 34.8756 -90.6228 88° East 419 482 27,000 1,300 Climbing Memphis Center
Sun 07:01:37 PM 34.8800 -90.4736 88° East 436 502 28,700 1,000 Climbing Memphis Center
Sun 07:02:37 PM 34.8842 -90.3242 88° East 436 502 29,000 150 Climbing Memphis Center
Sun 07:03:37 PM 34.8883 -90.1672 88° East 450 518 29,000  Level Memphis Center
Sun 07:04:37 PM 34.8942 -89.9975 88° East 461 531 29,000  Level Memphis Center
Sun 07:05:37 PM 34.9019 -89.8733 86° East 461 531 29,000  Level Memphis Center
Sun 07:06:37 PM 34.9056 -89.6961 89° East 467 537 29,000  Level Memphis Center
Sun 07:07:37 PM 34.9169 -89.5314 85° East 483 556 29,000  Level Memphis Center
Sun 07:08:37 PM 34.9200 -89.3794 89° East 458 527 29,000  Level Memphis Center
Sun 07:09:37 PM 34.9042 -89.2253 97° East 452 520 29,000  Level Memphis Center
Sun 07:10:37 PM 34.8733 -89.0764 104° East 459 528 29,000  Level Memphis Center
Sun 07:11:37 PM 34.8425 -88.9250 104° East 459 528 29,000  Level Memphis Center
Sun 07:12:37 PM 34.8114 -88.7711 104° East 464 534 29,000  Level Memphis Center
Sun 07:13:37 PM 34.7819 -88.5997 102° East 469 540 29,000  Level Memphis Center
Sun 07:14:37 PM 34.7592 -88.4664 102° East 469 540 29,000  Level Memphis Center
Sun 07:15:37 PM 34.7339 -88.3103 101° East 460 529 29,000  Level Memphis Center
Sun 07:16:37 PM 34.7078 -88.1339 100° East 472 543 29,000  Level Memphis Center
Sun 07:17:37 PM 34.6903 -87.9803 98° East 484 557 29,000  Level Memphis Center
Sun 07:18:37 PM 34.6664 -87.8219 100° East 476 548 29,000  Level Memphis Center
Sun 07:19:37 PM 34.6464 -87.6686 99° East 463 533 29,000  Level Memphis Center
Sun 07:21:21 PM 34.6061 -87.4003 100° East 471 542 29,000  Level Atlanta Center
Sun 07:22:21 PM 34.5769 -87.2453 103° East 470 541 29,000  Level Atlanta Center
Sun 07:23:21 PM 34.5411 -87.0925 106° East 470 541 29,000  Level Atlanta Center
Sun 07:24:21 PM 34.5050 -86.9425 106° East 470 541 29,000 -450 Level Atlanta Center
Sun 07:25:21 PM 34.4689 -86.7903 106° East 470 541 28,100 -1,850 Descending Atlanta Center
Sun 07:26:21 PM 34.4367 -86.6431 105° East 458 527 25,300 -2,000 Descending Atlanta Center
Sun 07:27:21 PM 34.4042 -86.4936 105° East 458 527 24,100 -650 Descending Atlanta Center
Sun 07:28:21 PM 34.3778 -86.3467 102° East 458 527 24,000 -50 Descending Atlanta Center
Sun 07:29:21 PM 34.3533 -86.2028 102° East 453 521 24,000  Level Atlanta Center
Sun 07:30:21 PM 34.3308 -86.0586 101° East 448 516 24,000  Level Atlanta Center
Sun 07:31:21 PM 34.3081 -85.9122 101° East 443 510 24,000 -150 Level Atlanta Center
Sun 07:32:21 PM 34.2914 -85.7711 98° East 438 504 23,700 -1,400 Descending Atlanta Center
Sun 07:33:21 PM 34.2658 -85.6450 104° East 423 487 21,200 -2,500 Descending Atlanta Center
Sun 07:34:21 PM 34.2406 -85.5114 103° East 412 474 18,700 -1,550 Descending Atlanta Center
Sun 07:35:21 PM 34.2189 -85.3828 101° East 400 460 18,100 -800 Descending Atlanta Center
Sun 07:36:21 PM 34.1892 -85.2517 105° East 400 460 17,100 -1,950 Descending Atlanta Center
Sun 07:37:21 PM 34.1631 -85.1233 104° East 393 452 14,200 -1,550 Descending Atlanta Center
Sun 07:38:21 PM 34.1011 -85.0372 131° Southeast 354 407 14,000 -100 Descending Atlanta Center
Sun 07:39:21 PM 34.0372 -84.9614 135° Southeast 338 389 14,000  Level Atlanta Center
Sun 07:40:21 PM 33.9561 -84.8878 143° Southeast 331 381 14,000 -950 Level Atlanta Center
Sun 07:41:21 PM 33.8692 -84.8144 145° Southeast 359 413 12,100 -1,086 Descending Atlanta Center
Sun 07:42:06 PM 33.8000 -84.7500 142° Southeast 380 437 12,100 -57 Level Atlanta TRACON
Sun 07:43:06 PM 33.7167 -84.6833 146° Southeast 380 437 12,000  Descending Atlanta TRACON
Sun 07:44:06 PM 33.6333 -84.6167 146° Southeast 302 348 12,100  Climbing Atlanta TRACON
Sun 07:45:00 PM 33.5833 -84.5667 140° Southeast 273 314 12,000 -684 Descending Atlanta TRACON
Sun 07:46:00 PM 33.5500 -84.5000 121° Southeast 259 298 10,800 -1,300 Descending Atlanta TRACON
Sun 07:47:00 PM 33.5333 -84.4167 103° East 254 292 9,400 -1,350 Descending Atlanta TRACON
Sun 07:48:00 PM 33.5333 -84.3333 90° East 237 273 8,100 -1,350 Descending Atlanta TRACON
Sun 07:49:00 PM 33.5333 -84.2500 90° East 240 276 6,700 -1,339 Descending Atlanta TRACON
Sun 07:50:01 PM 33.5500 -84.1833 73° East 226 260 5,400 -1,339 Descending Atlanta TRACON
Sun 07:51:01 PM 33.5833 -84.1667 23° Northeast 214 246 4,000 -950 Descending Atlanta TRACON
Sun 07:52:01 PM 33.6000 -84.2333 287° West 183 211 3,500 -400 Descending Atlanta TRACON
Sun 07:53:01 PM 33.6167 -84.2833 292° West 180 207 3,200 -667 Descending Atlanta TRACON
Sun 07:54:07 PM 33.6167 -84.3500 270° West 186 214 2,100 -950 Descending Atlanta TRACON
Sun 07:55:01 PM 33.6167 -84.4000 270° West 135 155 1,300 -889 Descending Atlanta TRACON

Login

Don't have an account? Register now (free) for customized features, flight alerts, and more!